• Join FlightAware (Why Join?)
  • Login
  • US Flag 
03:39PM EDT


 

Airport Tracker/Info


-or-


 

Live Flight TrackerFlight Track Log ✈ SWA395 ✈ 26-Apr-2013 ✈ KTUL - KLAS

Flight Track Log - Related Links

Times and Time Zones

All times are in EDT time to prevent confusion due to time zone crossing. See the SWA395 flight status page for this flight to view local times or setup timezone preferences in your user account.

Time Position Orientation Groundspeed Altitude Reporting Facility
EDT Latitude Longitude Course Direction KTS MPH feet Rate Location/Type
04:12PM 36.1953 -95.8633 73° East 158 182 1,900  Level Kansas City Center
04:13PM 36.2061 -95.8181 73° East 193 222 3,100 1,620 Climbing Kansas City Center
04:14PM 36.2369 -95.7978 28° Northeast 251 289 4,300 2,520 Climbing Kansas City Center
04:14PM 36.2731 -95.7936 North 284 327 5,700 3,000 Climbing Kansas City Center
04:15PM 36.3122 -95.7919 North 271 312 7,300 2,280 Climbing Kansas City Center
04:16PM 36.3144 -95.8803 272° West 240 276 9,700 1,860 Climbing Kansas City Center
04:17PM 36.2864 -95.9747 250° West 284 327 11,200 2,100 Climbing Kansas City Center
04:18PM 36.2542 -96.0875 251° West 339 390 14,000 2,700 Climbing Kansas City Center
04:19PM 36.2211 -96.1997 250° West 346 398 16,900 2,400 Climbing Kansas City Center
04:20PM 36.1872 -96.3156 250° West 353 406 19,000 2,100 Climbing Kansas City Center
04:21PM 36.1514 -96.4347 250° West 364 419 21,300 2,160 Climbing Kansas City Center
04:22PM 36.1169 -96.5553 251° West 370 426 23,500 1,860 Climbing Kansas City Center
04:23PM 36.0731 -96.7022 250° West 377 434 25,200 1,320 Climbing Kansas City Center
04:24PM 36.0500 -96.8256 257° West 391 450 26,300 1,260 Climbing Kansas City Center
04:25PM 36.0225 -96.9611 256° West 404 465 27,900 1,800 Climbing Kansas City Center
04:26PM 35.9894 -97.1228 256° West 407 468 30,000 1,740 Climbing Kansas City Center
04:27PM 35.9633 -97.2531 256° West 399 459 31,600 960 Climbing Kansas City Center
04:28PM 35.9367 -97.3825 256° West 394 453 32,000 180 Climbing Kansas City Center
04:29PM 35.9094 -97.5119 255° West 393 452 32,000 480 Level Kansas City Center
04:30PM 35.8831 -97.6403 256° West 390 449 33,100 1,200 Climbing Kansas City Center
04:31PM 35.8667 -97.7261 257° West 393 452 33,900 1,320 Climbing Fort Worth Center
04:32PM 35.8392 -97.8386 253° West 393 452 35,100 1,020 Climbing Fort Worth Center
04:33PM 35.8117 -97.9742 256° West 387 445 36,000 420 Climbing Fort Worth Center
04:34PM 35.7922 -98.1019 259° West 387 445 36,000  Level Fort Worth Center
04:35PM 35.7747 -98.2322 261° West 387 445 36,000  Level Fort Worth Center
04:36PM 35.7614 -98.3575 263° West 387 445 36,000  Level Fort Worth Center
04:37PM 35.7414 -98.4875 259° West 387 445 36,000  Level Fort Worth Center
04:38PM 35.7258 -98.6153 262° West 387 445 36,000  Level Fort Worth Center
04:39PM 35.7078 -98.7403 260° West 387 445 36,000  Level Fort Worth Center
04:40PM 35.6917 -98.8625 261° West 382 440 36,000  Level Fort Worth Center
04:41PM 35.6756 -98.9875 261° West 382 440 36,000  Level Fort Worth Center
04:42PM 35.6594 -99.1150 261° West 377 434 36,000  Level Fort Worth Center
04:43PM 35.6408 -99.2422 260° West 377 434 36,000  Level Fort Worth Center
04:44PM 35.6308 -99.3544 264° West 377 434 36,000  Level Fort Worth Center
04:45PM 35.6433 -99.4825 277° West 372 428 36,000  Level Fort Worth Center
04:47PM 35.6689 -99.7356 277° West 382 440 36,000  Level Albuquerque Center
04:48PM 35.6822 -99.8678 277° West 386 444 36,000  Level Albuquerque Center
04:49PM 35.6933 -99.9992 276° West 385 443 36,000  Level Albuquerque Center
04:50PM 35.7050 -100.1308 276° West 386 444 36,000  Level Albuquerque Center
04:51PM 35.7058 -100.2622 270° West 384 442 36,000  Level Albuquerque Center
04:52PM 35.7061 -100.3922 270° West 381 438 36,000  Level Albuquerque Center
04:53PM 35.7075 -100.5467 271° West 377 434 36,000  Level Albuquerque Center
04:54PM 35.7078 -100.6611 270° West 375 432 36,000  Level Albuquerque Center
04:55PM 35.7081 -100.8119 270° West 371 427 36,000  Level Albuquerque Center
04:56PM 35.7092 -100.9383 271° West 370 426 36,000  Level Albuquerque Center
04:57PM 35.7086 -101.0644 270° West 371 427 36,000  Level Albuquerque Center
04:58PM 35.7100 -101.1917 271° West 373 429 36,000  Level Albuquerque Center
04:59PM 35.7106 -101.3197 270° West 376 433 36,000  Level Albuquerque Center
05:00PM 35.7094 -101.4719 270° West 374 430 36,000  Level Albuquerque Center
05:01PM 35.7094 -101.6000 270° West 377 434 36,000  Level Albuquerque Center
05:02PM 35.7081 -101.7278 269° West 377 434 36,000  Level Albuquerque Center
05:03PM 35.7094 -101.8550 271° West 376 433 36,000  Level Albuquerque Center
05:04PM 35.7072 -101.9825 269° West 376 433 36,000  Level Albuquerque Center
05:05PM 35.7067 -102.1353 270° West 376 433 36,000  Level Albuquerque Center
05:06PM 35.7050 -102.2633 269° West 377 434 36,000  Level Albuquerque Center
05:07PM 35.7044 -102.3903 270° West 374 430 36,000  Level Albuquerque Center
05:08PM 35.7025 -102.5194 269° West 378 435 36,000  Level Albuquerque Center
05:09PM 35.7011 -102.6494 269° West 381 438 36,000  Level Albuquerque Center
05:11PM 35.7000 -102.7811 269° West 386 444 36,000  Level Albuquerque Center
05:12PM 35.6975 -102.9419 269° West 389 448 36,000  Level Albuquerque Center
05:13PM 35.6975 -103.0772 270° West 392 451 36,000  Level Albuquerque Center
05:14PM 35.6944 -103.2139 268° West 396 456 36,000  Level Albuquerque Center
05:15PM 35.6917 -103.3494 269° West 394 453 36,000  Level Albuquerque Center
05:16PM 35.6894 -103.4844 269° West 393 452 36,000  Level Albuquerque Center
05:17PM 35.6881 -103.6219 269° West 398 458 36,000  Level Albuquerque Center
05:18PM 35.6847 -103.7572 268° West 396 456 36,000  Level Albuquerque Center
05:19PM 35.6819 -103.9153 269° West 396 456 36,000  Level Albuquerque Center
05:20PM 35.6792 -104.0503 269° West 395 455 36,000  Level Albuquerque Center
05:21PM 35.6753 -104.1847 268° West 394 453 36,000  Level Albuquerque Center
05:22PM 35.6725 -104.3178 269° West 391 450 36,000  Level Albuquerque Center
05:23PM 35.6692 -104.4503 268° West 388 447 36,000  Level Albuquerque Center
05:24PM 35.6636 -104.6025 267° West 383 441 36,000  Level Albuquerque Center
05:25PM 35.6475 -104.7303 261° West 378 435 36,000  Level Albuquerque Center
05:26PM 35.6328 -104.8594 262° West 379 436 36,000  Level Albuquerque Center
05:27PM 35.6200 -104.9900 263° West 382 440 36,000  Level Albuquerque Center
05:28PM 35.6047 -105.1231 262° West 388 447 36,000  Level Albuquerque Center
05:29PM 35.5908 -105.2528 263° West 383 441 36,000  Level Albuquerque Center
05:30PM 35.5767 -105.3828 262° West 381 438 36,000  Level Albuquerque Center
05:31PM 35.5586 -105.5344 262° West 383 441 36,000  Level Albuquerque Center
05:32PM 35.5547 -105.6656 268° West 383 441 36,000  Level Albuquerque Center
05:33PM 35.5550 -105.7992 270° West 387 445 36,000  Level Albuquerque Center
05:34PM 35.5531 -105.9186 269° West 384 442 36,000  Level Albuquerque Center
05:35PM 35.5517 -106.0494 269° West 384 442 36,000 120 Level Albuquerque Center
05:36PM 35.5489 -106.2069 269° West 386 444 36,300 300 Climbing Albuquerque Center
05:37PM 35.5475 -106.3458 269° West 401 461 36,700 600 Climbing Albuquerque Center
05:38PM 35.5453 -106.4842 269° West 406 467 37,600 600 Climbing Albuquerque Center
05:39PM 35.5431 -106.6203 269° West 404 465 38,000 180 Climbing Albuquerque Center
05:40PM 35.5400 -106.7525 268° West 395 455 38,000  Level Albuquerque Center
05:42PM 35.5372 -106.8861 269° West 395 455 38,000  Level Albuquerque Center
05:43PM 35.5331 -107.0456 268° West 394 453 38,000  Level Albuquerque Center
05:44PM 35.5303 -107.1781 269° West 393 452 38,000  Level Albuquerque Center
05:45PM 35.5258 -107.3250 268° West 393 452 38,000  Level Albuquerque Center
05:46PM 35.5239 -107.4544 269° West 394 453 38,000  Level Albuquerque Center
05:47PM 35.5194 -107.6072 268° West 400 460 38,000  Level Albuquerque Center
05:48PM 35.5153 -107.7381 268° West 400 460 38,000  Level Albuquerque Center
05:49PM 35.5117 -107.8703 268° West 403 464 38,000  Level Albuquerque Center
05:50PM 35.5069 -108.0236 268° West 403 464 38,000  Level Albuquerque Center
05:51PM 35.5033 -108.1553 268° West 403 464 38,000  Level Albuquerque Center
05:52PM 35.4967 -108.3086 267° West 403 464 38,000  Level Albuquerque Center
05:53PM 35.4925 -108.4408 268° West 403 464 38,000  Level Albuquerque Center
05:54PM 35.4872 -108.5958 268° West 406 467 38,000  Level Albuquerque Center
05:55PM 35.4825 -108.7264 267° West 402 463 38,000  Level Albuquerque Center
05:56PM 35.4781 -108.8603 268° West 405 466 38,000  Level Albuquerque Center
05:57PM 35.4836 -109.0136 273° West 404 465 38,000  Level Albuquerque Center
05:58PM 35.4914 -109.1464 274° West 406 467 38,000  Level Albuquerque Center
05:59PM 35.4981 -109.3025 273° West 407 468 38,000  Level Albuquerque Center
06:00PM 35.5053 -109.4364 274° West 408 470 38,000  Level Albuquerque Center
06:01PM 35.5114 -109.5897 273° West 405 466 38,000  Level Albuquerque Center
06:02PM 35.5156 -109.7247 272° West 410 472 38,000  Level Albuquerque Center
06:03PM 35.5211 -109.8586 273° West 410 472 38,000  Level Albuquerque Center
06:04PM 35.5278 -110.0139 273° West 410 472 38,000  Level Albuquerque Center
06:05PM 35.5311 -110.1483 272° West 410 472 38,000 -300 Level Albuquerque Center
06:06PM 35.5364 -110.3050 272° West 411 473 37,500 -720 Descending Albuquerque Center
06:07PM 35.5428 -110.4397 273° West 412 474 36,600 -1,020 Descending Albuquerque Center
06:08PM 35.5489 -110.5961 273° West 413 475 35,500 -1,260 Descending Albuquerque Center
06:09PM 35.5517 -110.7217 272° West 395 455 34,100 -780 Descending Albuquerque Center
06:10PM 35.5575 -110.8744 273° West 398 458 34,000 -840 Descending Albuquerque Center
06:11PM 35.5636 -111.0033 273° West 397 457 32,400 -1,680 Descending Albuquerque Center
06:12PM 35.5667 -111.1286 272° West 389 448 30,600 -1,200 Descending Albuquerque Center
06:13PM 35.5711 -111.2714 272° West 378 435 30,000 -300 Descending Albuquerque Center
06:14PM 35.5739 -111.3944 272° West 378 435 30,000  Level Albuquerque Center
06:16PM 35.5797 -111.5242 273° West 385 443 30,000  Level Albuquerque Center
06:17PM 35.5831 -111.6519 272° West 382 440 30,000  Level Albuquerque Center
06:18PM 35.5861 -111.8050 271° West 378 435 30,000  Level Albuquerque Center
06:19PM 35.5914 -111.9333 273° West 378 435 30,000  Level Albuquerque Center
06:20PM 35.5972 -112.0608 273° West 378 435 30,000  Level Albuquerque Center
06:20PM 35.5981 -112.1381 271° West 379 436 30,000  Level Los Angeles Center
06:21PM 35.5975 -112.1867 269° West 373 429 30,000  Level Albuquerque Center
06:22PM 35.6006 -112.3128 272° West 372 428 30,000  Level Albuquerque Center
06:22PM 35.6036 -112.3889 273° West 372 428 30,000  Level Los Angeles Center
06:23PM 35.6072 -112.5436 272° West 378 435 30,000 -780 Level Los Angeles Center
06:24PM 35.6108 -112.6728 272° West 374 430 28,500 -1,500 Descending Los Angeles Center
06:25PM 35.6136 -112.8008 272° West 374 430 26,900 -1,020 Descending Los Angeles Center
06:26PM 35.6153 -112.9308 271° West 381 438 26,400 -1,440 Descending Los Angeles Center
06:27PM 35.6178 -113.0644 271° West 401 461 24,000 -1,200 Descending Los Angeles Center
06:28PM 35.6206 -113.2356 271° West 415 478 24,000  Level Los Angeles Center
06:30PM 35.6225 -113.3636 271° West 410 472 24,000  Level Los Angeles Center
06:31PM 35.6239 -113.4958 271° West 393 452 24,000 -360 Level Los Angeles Center
06:32PM 35.6353 -113.6261 276° West 387 445 23,300 -1,500 Descending Los Angeles Center
06:33PM 35.6575 -113.7764 280° West 375 432 20,900 -2,160 Descending Los Angeles Center
06:34PM 35.6747 -113.8997 280° West 369 425 18,900 -1,860 Descending Los Angeles Center
06:35PM 35.6917 -114.0192 280° West 360 414 17,100 -1,800 Descending Los Angeles Center
06:36PM 35.7083 -114.1344 280° West 346 398 15,200 -2,100 Descending Los Angeles Center
06:37PM 35.7297 -114.2689 281° West 342 394 12,900 -1,620 Descending Los Angeles Center
06:38PM 35.7469 -114.3744 281° West 321 369 12,000 -480 Descending Los Angeles Center
06:39PM 35.8139 -114.4164 333° Northwest 293 337 12,000 -180 Level Los Angeles Center
06:40PM 35.8950 -114.4547 339° North 291 335 11,700 -540 Descending Los Angeles Center
06:41PM 35.9628 -114.5139 325° Northwest 267 307 10,900 -900 Descending Los Angeles Center
06:42PM 35.9981 -114.5833 302° West 240 276 9,800 -1,140 Descending Los Angeles Center
06:43PM 36.0331 -114.6475 304° West 234 269 8,800 -900 Descending Los Angeles Center
06:44PM 36.0692 -114.7169 303° West 233 268 8,000 -480 Descending Los Angeles Center
06:45PM 36.0736 -114.8017 274° West 236 272 7,900 -480 Descending Los Angeles Center
06:46PM 36.0739 -114.8708 270° West 195 224 7,100 -1,080 Descending Los Angeles Center
06:47PM 36.0742 -114.9422 270° West 201 231 5,700 -1,200 Descending Los Angeles Center
06:48PM 36.0744 -115.0036 270° West 189 217 4,500 -1,440 Descending Los Angeles Center
06:49PM 36.0731 -115.0547 268° West 174 200 3,200 -1,500 Descending Los Angeles Center
06:49PM 36.0744 -115.0628 282° West 181 208 3,000 -840 Descending Los Angeles Center
06:50PM 36.0739 -115.1078 269° West 154 177 2,400 -780 Descending Los Angeles Center
06:50PM 36.0739 -115.1158 270° West 169 194 2,200 -720 Descending Los Angeles Center
06:52PM 36.0667 -115.1500 270° West  Level FlightAware Approximate